Time;durP1;ratioP1;P1;durP2;ratioP2;P2;SDS_P1;SDS_P2;PMS_P1;PMS_P2;Temp;Humidity;BMP_temperature;BMP_pressure;BME280_temperature;BME280_humidity;BME280_pressure;Samples;Min_cycle;Max_cycle;Signal;HPM_P1;HPM_P2
2022/05/05 00:01:36;;;;;;;4.43;1.10;;;21.00;52.50;;;;;;5010855;28;20045;-57
2022/05/05 00:04:03;;;;;;;1.88;0.70;;;21.00;52.50;;;;;;5012170;28;20042;-57
2022/05/05 00:06:28;;;;;;;3.92;0.70;;;21.00;52.50;;;;;;5012555;28;20042;-57
2022/05/05 00:08:54;;;;;;;2.33;1.10;;;21.00;52.40;;;;;;5011515;28;20394;-57
2022/05/05 00:16:48;;;;;;;2.80;0.90;;;20.90;52.40;;;;;;5012278;28;20041;-57
2022/05/05 00:19:13;;;;;;;3.00;0.90;;;20.90;52.30;;;;;;5012621;28;20042;-57
2022/05/05 00:21:39;;;;;;;3.90;0.95;;;20.90;52.30;;;;;;5012633;28;20034;-57
2022/05/05 00:24:08;;;;;;;2.15;0.90;;;20.90;52.30;;;;;;5016041;28;20409;-57
2022/05/05 00:26:33;;;;;;;2.15;0.80;;;20.90;52.30;;;;;;5016274;28;20038;-57
2022/05/05 00:28:59;;;;;;;2.13;0.75;;;20.90;52.30;;;;;;5014892;28;20367;-57
2022/05/05 00:31:25;;;;;;;3.10;0.93;;;20.90;52.30;;;;;;5016054;28;20393;-57
2022/05/05 00:33:51;;;;;;;2.00;0.90;;;20.90;52.30;;;;;;5015745;28;20045;-57
2022/05/05 00:36:16;;;;;;;3.63;0.88;;;20.90;52.30;;;;;;5014976;28;20096;-57
2022/05/05 00:38:42;;;;;;;2.90;1.10;;;20.80;52.20;;;;;;5015512;28;20045;-57
2022/05/05 00:41:08;;;;;;;2.20;1.00;;;20.80;52.20;;;;;;5015947;28;20038;-57
2022/05/05 00:43:34;;;;;;;2.80;0.90;;;20.80;52.20;;;;;;5015198;28;20049;-57
2022/05/05 00:46:00;;;;;;;1.75;0.70;;;20.80;52.20;;;;;;5014913;28;20441;-57
2022/05/05 00:48:26;;;;;;;1.83;0.82;;;20.80;52.20;;;;;;5015805;28;20053;-57
2022/05/05 00:50:51;;;;;;;2.58;0.90;;;20.80;52.20;;;;;;5014739;28;20041;-57
2022/05/05 00:53:17;;;;;;;4.82;1.20;;;20.80;52.20;;;;;;5015871;28;20184;-57
2022/05/05 00:55:42;;;;;;;3.55;1.00;;;20.80;52.20;;;;;;5015495;28;20077;-57
2022/05/05 00:58:09;;;;;;;2.10;1.13;;;20.80;52.20;;;;;;5014399;28;20081;-57
2022/05/05 01:00:34;;;;;;;3.90;1.10;;;20.80;52.20;;;;;;5014444;28;20077;-57
2022/05/05 01:03:00;;;;;;;2.92;0.90;;;20.80;52.20;;;;;;5015063;28;20089;-57
2022/05/05 01:05:29;;;;;;;3.45;1.00;;;20.80;52.10;;;;;;5014401;28;20057;-57
2022/05/05 01:07:56;;;;;;;3.25;1.10;;;20.80;52.10;;;;;;5014890;28;20116;-57
2022/05/05 01:10:22;;;;;;;1.70;0.82;;;20.70;52.00;;;;;;5014163;28;20062;-57
2022/05/05 01:12:47;;;;;;;3.60;1.00;;;20.80;52.10;;;;;;5014318;28;20042;-57
2022/05/05 01:15:13;;;;;;;1.60;0.80;;;20.70;52.00;;;;;;5015496;28;20053;-57
2022/05/05 01:17:38;;;;;;;2.53;1.00;;;20.70;52.00;;;;;;5013171;28;20046;-57
2022/05/05 01:20:18;;;;;;;1.50;0.82;;;20.70;52.70;;;;;;5015384;28;20048;-57
2022/05/05 01:22:43;;;;;;;2.25;1.10;;;20.70;51.90;;;;;;5015015;28;20038;-57
2022/05/05 01:28:12;;;;;;;4.20;1.08;;;20.70;51.90;;;;;;5014825;28;20054;-57
2022/05/05 01:30:39;;;;;;;2.42;1.05;;;20.70;51.90;;;;;;5014932;28;20125;-57
2022/05/05 01:33:15;;;;;;;1.95;0.93;;;20.70;51.90;;;;;;5013382;28;20124;-57
2022/05/05 01:35:41;;;;;;;3.08;0.98;;;20.70;51.90;;;;;;5014344;28;20036;-57
2022/05/05 01:38:08;;;;;;;3.05;0.80;;;20.60;51.90;;;;;;5014609;28;20375;-57
2022/05/05 01:40:35;;;;;;;2.88;0.93;;;20.60;51.80;;;;;;5012948;28;20091;-57
2022/05/05 01:43:02;;;;;;;2.17;1.08;;;20.60;51.80;;;;;;5014493;28;20038;-57
2022/05/05 01:45:28;;;;;;;2.97;1.20;;;20.60;51.80;;;;;;5014599;28;20042;-57
2022/05/05 01:47:54;;;;;;;2.08;0.77;;;20.60;51.80;;;;;;5013778;28;20098;-57
2022/05/05 01:50:20;;;;;;;2.00;1.00;;;20.60;51.80;;;;;;5014583;28;20042;-57
2022/05/05 01:52:49;;;;;;;2.20;1.10;;;20.60;51.80;;;;;;5013764;28;20054;-57
2022/05/05 01:55:14;;;;;;;2.22;0.90;;;20.60;51.70;;;;;;5013587;28;20038;-57
2022/05/05 01:57:40;;;;;;;2.35;0.80;;;20.60;51.70;;;;;;5014274;28;20136;-57
2022/05/05 02:00:06;;;;;;;2.47;1.00;;;20.60;51.70;;;;;;5014104;28;20085;-57
2022/05/05 02:02:32;;;;;;;3.63;1.25;;;20.60;51.70;;;;;;5014417;28;20145;-57
2022/05/05 02:04:57;;;;;;;3.15;1.15;;;20.60;51.70;;;;;;5013350;28;20050;-58
2022/05/05 02:07:23;;;;;;;2.72;0.90;;;20.50;51.60;;;;;;5013482;28;20046;-57
2022/05/05 02:09:48;;;;;;;2.90;1.00;;;20.60;51.60;;;;;;5013883;28;20046;-57
2022/05/05 02:12:14;;;;;;;2.58;1.02;;;20.60;51.60;;;;;;5014197;28;20081;-57
2022/05/05 02:14:39;;;;;;;4.82;1.15;;;20.60;51.70;;;;;;5013287;28;20042;-57
2022/05/05 02:17:05;;;;;;;1.52;0.88;;;20.50;51.50;;;;;;5013931;28;20060;-57
2022/05/05 02:19:31;;;;;;;2.05;0.90;;;20.50;51.50;;;;;;5014253;28;20398;-57
2022/05/05 02:21:56;;;;;;;2.20;1.00;;;20.50;51.50;;;;;;5012933;28;20046;-57
2022/05/05 02:24:22;;;;;;;3.85;1.00;;;20.50;51.50;;;;;;5014078;28;20178;-57
2022/05/05 02:26:48;;;;;;;3.67;1.00;;;20.50;51.60;;;;;;5013620;28;20558;-57
2022/05/05 02:29:14;;;;;;;1.92;1.05;;;20.50;51.50;;;;;;5013209;28;20069;-57
2022/05/05 02:31:39;;;;;;;1.60;0.90;;;20.50;51.50;;;;;;5013815;28;20050;-57
2022/05/05 02:34:08;;;;;;;2.58;0.90;;;20.50;51.50;;;;;;5013451;28;20049;-57
2022/05/05 02:39:18;;;;;;;3.05;0.85;;;20.50;51.50;;;;;;5013899;28;20192;-57
2022/05/05 02:41:44;;;;;;;3.30;1.10;;;20.50;51.50;;;;;;5013440;28;20074;-57
2022/05/05 02:44:09;;;;;;;1.55;1.00;;;20.50;51.50;;;;;;5012863;28;20414;-57
2022/05/05 02:46:34;;;;;;;1.83;0.90;;;20.50;51.50;;;;;;5013710;28;20048;-57
2022/05/05 02:49:00;;;;;;;1.70;0.77;;;20.40;51.40;;;;;;5012330;28;20125;-57
2022/05/05 02:51:26;;;;;;;1.98;0.82;;;20.40;51.40;;;;;;5013684;28;20537;-57
2022/05/05 02:56:35;;;;;;;1.83;0.90;;;20.40;51.40;;;;;;5012945;28;20061;-57
2022/05/05 02:59:01;;;;;;;1.90;0.80;;;20.40;51.40;;;;;;5012957;28;20054;-56
2022/05/05 03:01:26;;;;;;;2.28;0.88;;;20.40;51.40;;;;;;5012345;28;20433;-57
2022/05/05 03:03:52;;;;;;;2.67;0.98;;;20.40;51.40;;;;;;5012407;28;20489;-57
2022/05/05 03:06:17;;;;;;;1.20;0.90;;;20.40;52.10;;;;;;5013194;28;20073;-57
2022/05/05 03:08:43;;;;;;;1.77;0.82;;;20.40;51.30;;;;;;5012890;28;20053;-57
2022/05/05 03:11:09;;;;;;;1.95;0.88;;;20.40;51.40;;;;;;5012113;28;20058;-57
2022/05/05 03:13:36;;;;;;;1.88;0.80;;;20.40;51.30;;;;;;5012804;28;20497;-57
2022/05/05 03:16:02;;;;;;;2.38;0.85;;;20.40;51.40;;;;;;5013042;28;20046;-57
2022/05/05 03:18:28;;;;;;;1.33;0.80;;;20.40;51.40;;;;;;5012519;28;20073;-57
2022/05/05 03:20:53;;;;;;;3.20;1.17;;;20.40;51.40;;;;;;5012758;28;20432;-57
2022/05/05 03:23:19;;;;;;;2.85;0.88;;;20.30;51.30;;;;;;5012907;28;20133;-57
2022/05/05 03:25:44;;;;;;;2.95;0.95;;;20.30;51.30;;;;;;5012202;28;20212;-57
2022/05/05 03:28:10;;;;;;;3.65;1.20;;;20.30;51.30;;;;;;5012853;28;20042;-57
2022/05/05 03:30:35;;;;;;;3.97;1.20;;;20.30;51.30;;;;;;5013190;28;20508;-57
2022/05/05 03:33:01;;;;;;;2.80;1.15;;;20.30;51.30;;;;;;5011462;28;20056;-57
2022/05/05 03:35:26;;;;;;;3.30;1.20;;;20.30;51.30;;;;;;5012765;28;20080;-57
2022/05/05 03:37:52;;;;;;;3.05;1.23;;;20.30;51.30;;;;;;5012658;28;20152;-57
2022/05/05 03:40:17;;;;;;;3.22;1.20;;;20.30;51.30;;;;;;5012076;28;20092;-57
2022/05/05 03:42:43;;;;;;;2.70;1.10;;;20.30;51.30;;;;;;5012374;28;20096;-57
2022/05/05 03:45:09;;;;;;;2.30;1.00;;;20.30;51.20;;;;;;5013016;28;20049;-57
2022/05/05 03:47:34;;;;;;;1.90;0.93;;;20.30;51.90;;;;;;5012180;28;20469;-57
2022/05/05 03:49:59;;;;;;;1.83;0.80;;;20.30;51.00;;;;;;5012592;28;20401;-57
2022/05/05 03:52:25;;;;;;;2.47;1.02;;;20.30;51.00;;;;;;5011682;28;20133;-57
2022/05/05 03:54:50;;;;;;;2.00;1.10;;;20.30;51.00;;;;;;5012638;28;20049;-57
2022/05/05 03:57:16;;;;;;;2.35;0.90;;;20.30;50.90;;;;;;5015312;28;20112;-57
2022/05/05 03:59:41;;;;;;;3.03;1.05;;;20.30;50.90;;;;;;5015739;28;20104;-57
2022/05/05 04:02:07;;;;;;;2.97;0.90;;;20.30;50.90;;;;;;5016552;28;20037;-57
2022/05/05 04:04:32;;;;;;;3.30;0.90;;;20.30;50.90;;;;;;5016601;28;20685;-57
2022/05/05 04:06:58;;;;;;;2.17;0.90;;;20.30;50.90;;;;;;5015277;28;20133;-57
2022/05/05 04:09:23;;;;;;;1.60;0.93;;;20.30;51.00;;;;;;5016252;28;20049;-57
2022/05/05 04:11:49;;;;;;;1.45;0.82;;;20.30;51.10;;;;;;5015891;28;20076;-57
2022/05/05 04:14:14;;;;;;;1.98;1.10;;;20.30;51.20;;;;;;5015909;28;20046;-57
2022/05/05 04:16:41;;;;;;;1.45;0.80;;;20.30;51.20;;;;;;5016018;28;20046;-57
2022/05/05 04:19:06;;;;;;;1.58;0.98;;;20.30;51.20;;;;;;5016331;28;20050;-57
2022/05/05 04:21:33;;;;;;;2.70;1.08;;;20.30;51.20;;;;;;5015509;28;20096;-57
2022/05/05 04:23:59;;;;;;;2.47;0.90;;;20.30;51.20;;;;;;5015833;28;20090;-57
2022/05/05 04:26:25;;;;;;;2.70;1.23;;;20.30;51.20;;;;;;5016315;28;20049;-57
2022/05/05 04:28:50;;;;;;;1.20;0.85;;;20.30;51.20;;;;;;5015322;28;20048;-57
2022/05/05 04:31:17;;;;;;;1.48;0.80;;;20.30;51.20;;;;;;5015153;28;20041;-57
2022/05/05 04:33:43;;;;;;;1.50;0.80;;;20.30;51.10;;;;;;5015526;28;20601;-57
2022/05/05 04:36:09;;;;;;;2.63;0.88;;;20.40;51.30;;;;;;5015168;28;20050;-57
2022/05/05 04:38:35;;;;;;;2.33;1.10;;;20.30;51.20;;;;;;5014770;28;20046;-57
2022/05/05 04:41:00;;;;;;;2.33;1.00;;;20.40;51.20;;;;;;5015751;28;20045;-57
2022/05/05 04:43:26;;;;;;;1.10;0.70;;;20.40;51.20;;;;;;5015292;28;20054;-57
2022/05/05 04:45:52;;;;;;;2.67;1.10;;;20.40;51.20;;;;;;5015756;28;20104;-57
2022/05/05 04:48:18;;;;;;;2.50;1.02;;;20.40;51.20;;;;;;5015915;28;20053;-57
2022/05/05 04:50:43;;;;;;;2.20;0.70;;;20.40;51.20;;;;;;5014940;28;20135;-57
2022/05/05 04:53:09;;;;;;;3.28;0.82;;;20.40;51.20;;;;;;5015926;28;20141;-57
2022/05/05 04:55:34;;;;;;;2.50;1.10;;;20.40;51.10;;;;;;5014829;28;20070;-57
2022/05/05 04:58:00;;;;;;;4.75;1.20;;;20.40;51.20;;;;;;5015547;28;20053;-57
2022/05/05 05:00:25;;;;;;;1.40;0.90;;;20.40;51.10;;;;;;5015801;28;20042;-57
2022/05/05 05:02:51;;;;;;;1.73;1.00;;;20.50;51.20;;;;;;5014722;28;20060;-57
2022/05/05 05:05:17;;;;;;;1.70;0.90;;;20.50;51.20;;;;;;5015370;28;20048;-57
2022/05/05 05:07:42;;;;;;;3.28;0.80;;;20.50;51.20;;;;;;5014310;28;20087;-56
2022/05/05 05:10:08;;;;;;;1.40;0.77;;;20.50;51.10;;;;;;5014236;28;20053;-57
2022/05/05 05:12:34;;;;;;;2.40;0.90;;;20.50;51.20;;;;;;5015292;28;20096;-57
2022/05/05 05:14:59;;;;;;;0.93;0.77;;;20.50;51.20;;;;;;5015463;28;20081;-57
2022/05/05 05:17:25;;;;;;;2.08;1.25;;;20.50;51.20;;;;;;5014640;28;20053;-57
2022/05/05 05:19:50;;;;;;;1.75;1.00;;;20.50;51.20;;;;;;5014699;28;20112;-57
2022/05/05 05:22:16;;;;;;;2.28;0.80;;;20.50;51.10;;;;;;5015247;28;20045;-57
2022/05/05 05:24:41;;;;;;;2.33;1.00;;;20.60;51.30;;;;;;5014018;28;20042;-57
2022/05/05 05:27:07;;;;;;;2.72;0.80;;;20.50;51.10;;;;;;5015134;28;20424;-57
2022/05/05 05:29:32;;;;;;;2.17;0.90;;;20.50;51.20;;;;;;5015118;28;20113;-56
2022/05/05 05:31:58;;;;;;;1.35;0.80;;;20.60;51.30;;;;;;5014157;28;20489;-57
2022/05/05 05:34:23;;;;;;;3.90;1.00;;;20.60;51.30;;;;;;5014930;28;20034;-57
2022/05/05 05:36:49;;;;;;;3.55;0.93;;;20.60;51.30;;;;;;5014539;28;20405;-57
2022/05/05 05:39:17;;;;;;;1.27;0.75;;;20.60;51.40;;;;;;5013937;28;20049;-57
2022/05/05 05:41:43;;;;;;;2.27;1.00;;;20.60;51.40;;;;;;5014499;28;20046;-57
2022/05/05 05:44:08;;;;;;;3.80;1.05;;;20.70;51.50;;;;;;5014865;28;20391;-57
2022/05/05 05:46:34;;;;;;;4.75;1.30;;;20.70;51.40;;;;;;5014253;28;20375;-57
2022/05/05 05:48:59;;;;;;;3.17;1.00;;;20.70;51.40;;;;;;5014248;28;20096;-57
2022/05/05 05:51:25;;;;;;;2.47;1.30;;;20.70;51.50;;;;;;5014924;28;20115;-57
2022/05/05 05:53:51;;;;;;;2.97;1.27;;;20.70;51.50;;;;;;5013541;28;20104;-57
2022/05/05 05:56:17;;;;;;;2.60;1.00;;;20.80;51.60;;;;;;5014329;28;20861;-57
2022/05/05 05:58:42;;;;;;;3.90;1.08;;;20.80;51.70;;;;;;5014121;28;20501;-57
2022/05/05 06:01:08;;;;;;;2.28;1.08;;;20.80;51.80;;;;;;5013900;28;20125;-57
2022/05/05 06:06:18;;;;;;;3.67;0.80;;;20.90;51.90;;;;;;5012882;28;20140;-57
2022/05/05 06:08:44;;;;;;;2.72;0.93;;;20.90;52.10;;;;;;5013936;28;20081;-58
2022/05/05 06:11:11;;;;;;;3.03;0.93;;;20.90;52.20;;;;;;5013936;28;20402;-57
2022/05/05 06:13:37;;;;;;;2.20;0.90;;;20.90;52.40;;;;;;5013402;28;20505;-57
2022/05/05 06:16:04;;;;;;;2.08;1.15;;;20.90;52.50;;;;;;5013419;28;20520;-57
2022/05/05 06:18:30;;;;;;;2.90;0.90;;;20.90;52.60;;;;;;5013968;28;20045;-57
2022/05/05 06:20:56;;;;;;;2.95;0.95;;;21.00;52.70;;;;;;5012921;28;20108;-57
2022/05/05 06:23:22;;;;;;;4.18;1.15;;;21.00;52.80;;;;;;5013994;28;20042;-57
2022/05/05 06:25:47;;;;;;;1.20;0.90;;;21.00;52.80;;;;;;5013828;28;20037;-57
2022/05/05 06:28:13;;;;;;;3.10;0.90;;;21.00;52.80;;;;;;5013411;28;20125;-57
2022/05/05 06:30:38;;;;;;;1.92;0.80;;;21.00;52.90;;;;;;5014054;28;20496;-57
2022/05/05 06:33:04;;;;;;;2.15;0.93;;;21.00;52.90;;;;;;5013745;28;20049;-57
2022/05/05 06:35:29;;;;;;;3.58;0.80;;;21.10;53.00;;;;;;5013302;28;20045;-57
2022/05/05 06:37:55;;;;;;;3.10;1.02;;;21.10;53.10;;;;;;5013519;28;20108;-57
2022/05/05 06:40:20;;;;;;;1.13;0.70;;;21.10;53.20;;;;;;5013899;28;20042;-56
2022/05/05 06:42:48;;;;;;;2.80;0.80;;;21.10;53.20;;;;;;5012804;28;20057;-57
2022/05/05 06:45:14;;;;;;;3.60;1.20;;;21.10;53.30;;;;;;5013876;28;20124;-56
2022/05/05 06:47:40;;;;;;;2.40;1.00;;;21.10;53.40;;;;;;5013137;28;20038;-57
2022/05/05 06:50:06;;;;;;;2.45;1.00;;;21.10;53.40;;;;;;4999205;28;20655;-57
2022/05/05 06:52:32;;;;;;;4.93;1.00;;;21.10;53.50;;;;;;4992841;28;20054;-57
2022/05/05 06:54:57;;;;;;;3.38;1.20;;;21.10;53.50;;;;;;4993141;28;20044;-57
2022/05/05 06:57:23;;;;;;;2.83;1.02;;;21.10;53.60;;;;;;4992887;28;20073;-57
2022/05/05 06:59:49;;;;;;;3.15;1.10;;;21.10;53.70;;;;;;4993013;28;20133;-57
2022/05/05 07:02:14;;;;;;;3.05;0.93;;;21.20;53.80;;;;;;4992779;28;20069;-57
2022/05/05 07:07:24;;;;;;;3.10;1.10;;;21.20;53.80;;;;;;4993641;28;20121;-57
2022/05/05 07:12:34;;;;;;;2.63;1.00;;;21.20;53.80;;;;;;4993312;28;20490;-58
2022/05/05 07:14:59;;;;;;;1.98;1.10;;;21.30;53.90;;;;;;4993015;28;20077;-58
2022/05/05 07:17:25;;;;;;;2.45;1.08;;;21.30;53.80;;;;;;4991826;28;20401;-56
2022/05/05 07:19:51;;;;;;;2.58;1.00;;;21.30;53.90;;;;;;4993043;28;20085;-56
2022/05/05 07:22:16;;;;;;;2.58;0.95;;;21.30;53.90;;;;;;4993359;28;20116;-56
2022/05/05 07:24:42;;;;;;;2.15;1.02;;;21.30;53.90;;;;;;4991912;28;20042;-57
2022/05/05 07:27:07;;;;;;;2.42;1.20;;;21.30;53.90;;;;;;4993069;28;20112;-56
2022/05/05 07:29:33;;;;;;;1.77;1.10;;;21.30;54.00;;;;;;4992780;28;20493;-56
2022/05/05 07:31:59;;;;;;;2.55;1.10;;;21.40;54.00;;;;;;4991210;28;20505;-56
2022/05/05 07:34:24;;;;;;;2.47;1.23;;;21.40;54.10;;;;;;4992960;28;20537;-57
2022/05/05 07:36:50;;;;;;;2.10;1.10;;;21.40;54.20;;;;;;4992931;28;20046;-57
2022/05/05 07:39:15;;;;;;;2.75;0.82;;;21.40;54.20;;;;;;4992625;28;20038;-58
2022/05/05 07:41:41;;;;;;;5.25;1.15;;;21.40;54.20;;;;;;4992957;28;20043;-58
2022/05/05 07:44:07;;;;;;;2.88;1.00;;;21.40;54.30;;;;;;4993019;28;20509;-57
2022/05/05 07:46:33;;;;;;;3.20;1.00;;;21.40;54.30;;;;;;4992080;28;20034;-57
2022/05/05 07:49:02;;;;;;;3.38;1.00;;;21.40;54.30;;;;;;5004008;28;20038;-57
2022/05/05 07:51:28;;;;;;;2.28;1.10;;;21.50;54.30;;;;;;5008673;28;20049;-57
2022/05/05 07:56:39;;;;;;;3.30;1.00;;;21.50;54.30;;;;;;5011632;28;20042;-57
2022/05/05 07:59:04;;;;;;;3.40;0.90;;;21.50;54.30;;;;;;5010657;28;20390;-56
2022/05/05 08:01:30;;;;;;;2.28;1.00;;;21.50;54.30;;;;;;5011538;28;20073;-57
2022/05/05 08:03:55;;;;;;;2.85;0.85;;;21.50;54.30;;;;;;5011574;28;20049;-58
2022/05/05 08:06:21;;;;;;;2.22;1.00;;;21.50;54.40;;;;;;5011599;28;20041;-58
2022/05/05 08:08:47;;;;;;;5.60;1.75;;;21.50;54.50;;;;;;5012198;28;20041;-58
2022/05/05 08:11:12;;;;;;;3.53;0.90;;;21.50;54.40;;;;;;5012185;28;20058;-57
2022/05/05 08:13:38;;;;;;;2.63;1.00;;;21.60;54.40;;;;;;5011660;28;20050;-57
2022/05/05 08:16:04;;;;;;;3.00;1.17;;;21.50;54.30;;;;;;5012531;28;20049;-58
2022/05/05 08:18:29;;;;;;;3.40;1.08;;;21.50;54.30;;;;;;5012283;28;20048;-57
2022/05/05 08:20:55;;;;;;;3.47;1.00;;;21.50;54.20;;;;;;5011341;28;20506;-58
2022/05/05 08:23:20;;;;;;;3.42;0.93;;;21.50;54.30;;;;;;5012211;28;20456;-57
2022/05/05 08:28:30;;;;;;;3.40;0.85;;;21.50;54.30;;;;;;5011697;28;20045;-57
2022/05/05 08:30:59;;;;;;;1.70;1.00;;;21.50;54.30;;;;;;5012228;28;20042;-57
2022/05/05 08:33:27;;;;;;;3.72;1.13;;;21.50;54.20;;;;;;5012318;28;20042;-57
2022/05/05 08:35:57;;;;;;;1.85;0.90;;;21.50;54.20;;;;;;5011237;28;20072;-57
2022/05/05 08:38:22;;;;;;;2.30;0.93;;;21.50;54.20;;;;;;5013027;28;20121;-57
2022/05/05 08:40:48;;;;;;;2.30;1.00;;;21.50;54.30;;;;;;5011604;28;20489;-57
2022/05/05 08:43:14;;;;;;;1.85;0.82;;;21.50;54.30;;;;;;5014526;28;20529;-57
2022/05/05 08:45:39;;;;;;;2.08;0.82;;;21.50;54.30;;;;;;5015725;28;20493;-58
2022/05/05 08:48:10;;;;;;;4.30;1.20;;;21.50;54.30;;;;;;5014694;28;20045;-57
2022/05/05 08:50:39;;;;;;;6.93;2.47;;;21.50;54.30;;;;;;5015761;28;20045;-57
2022/05/05 08:53:05;;;;;;;9.32;2.90;;;21.50;54.30;;;;;;5015600;28;20046;-57
2022/05/05 08:55:31;;;;;;;7.53;2.40;;;21.40;54.30;;;;;;5014967;28;20482;-57
2022/05/05 08:57:57;;;;;;;9.18;3.20;;;21.50;54.30;;;;;;5015357;28;20054;-58
2022/05/05 09:00:24;;;;;;;11.80;3.35;;;21.50;54.40;;;;;;5015595;28;20046;-57
2022/05/05 09:02:56;;;;;;;10.35;3.90;;;21.50;54.50;;;;;;5014178;28;20050;-57
2022/05/05 09:06:01;;;;;;;10.57;3.58;;;21.50;54.70;;;;;;5015333;28;20128;-57
2022/05/05 09:08:27;;;;;;;9.95;3.53;;;21.50;54.80;;;;;;5012596;28;20049;-57
2022/05/05 09:10:54;;;;;;;12.57;3.92;;;21.50;54.80;;;;;;5011547;28;20112;-57
2022/05/05 09:13:27;;;;;;;10.38;3.88;;;21.50;54.90;;;;;;5013662;28;20045;-58
2022/05/05 09:15:53;;;;;;;10.70;4.00;;;21.50;55.00;;;;;;5014195;28;20046;-57
2022/05/05 09:18:29;;;;;;;10.88;4.10;;;21.60;55.10;;;;;;5015216;28;20053;-57
2022/05/05 09:20:55;;;;;;;11.05;4.22;;;21.60;55.10;;;;;;5014864;28;20050;-57
2022/05/05 09:23:28;;;;;;;12.70;3.92;;;21.60;55.10;;;;;;5012782;28;20443;-57
2022/05/05 09:25:54;;;;;;;8.95;3.88;;;21.60;55.00;;;;;;5014424;28;20076;-57
2022/05/05 09:28:23;;;;;;;10.60;4.03;;;21.60;54.90;;;;;;5014822;28;20073;-57
2022/05/05 09:30:50;;;;;;;10.15;4.20;;;21.50;54.70;;;;;;5013906;28;20080;-57
2022/05/05 09:33:38;;;;;;;10.07;3.75;;;21.50;55.30;;;;;;5015143;28;20128;-58
2022/05/05 09:36:09;;;;;;;9.50;4.07;;;21.60;54.40;;;;;;5014484;28;20126;-57
2022/05/05 09:38:54;;;;;;;8.52;3.35;;;21.50;54.30;;;;;;5013800;28;20125;-57
2022/05/05 09:41:43;;;;;;;8.23;3.45;;;21.60;54.50;;;;;;5013337;28;20466;-58
2022/05/05 09:44:29;;;;;;;9.68;3.88;;;21.60;54.70;;;;;;5012345;28;20437;-57
2022/05/05 09:46:58;;;;;;;22.45;9.77;;;21.60;55.10;;;;;;5013392;28;20058;-57
2022/05/05 09:49:29;;;;;;;19.35;8.57;;;21.60;55.20;;;;;;5013823;28;20112;-57
2022/05/05 09:57:58;;;;;;;21.88;9.10;;;21.70;55.50;;;;;;5014101;28;20486;-57
2022/05/05 10:05:43;;;;;;;17.50;10.48;;;21.70;55.60;;;;;;5012423;28;20360;-58
2022/05/05 10:08:09;;;;;;;24.00;11.15;;;21.70;55.60;;;;;;5028806;28;20042;-57
2022/05/05 10:10:35;;;;;;;43.03;19.20;;;21.70;55.60;;;;;;5014018;28;20129;-59
2022/05/05 10:13:00;;;;;;;31.90;13.77;;;21.70;56.40;;;;;;5011921;28;20061;-58
2022/05/05 10:15:26;;;;;;;65.05;25.35;;;21.80;56.60;;;;;;5013848;28;20046;-59
2022/05/05 10:17:51;;;;;;;90.50;35.75;;;21.80;57.40;;;;;;5029078;28;20403;-59
2022/05/05 10:20:17;;;;;;;44.80;18.55;;;21.80;58.30;;;;;;5013530;28;20389;-59
2022/05/05 10:22:49;;;;;;;44.40;17.42;;;21.90;58.00;;;;;;5013729;28;20041;-59
2022/05/05 10:25:17;;;;;;;35.47;17.63;;;21.90;57.50;;;;;;5028977;28;20042;-59
2022/05/05 10:27:43;;;;;;;;;;;21.80;57.20;;;;;;5028358;28;20041;-60
2022/05/05 10:30:34;;;;;;;37.03;15.68;;;21.80;56.80;;;;;;5013922;28;19921;-59
2022/05/05 10:33:00;;;;;;;31.50;13.73;;;21.80;56.90;;;;;;5013603;28;20045;-59
2022/05/05 10:35:26;;;;;;;28.70;13.63;;;21.80;56.90;;;;;;5013193;28;20053;-59
2022/05/05 10:37:51;;;;;;;33.50;13.50;;;21.80;56.80;;;;;;5029041;28;20038;-59
2022/05/05 10:40:17;;;;;;;33.95;13.48;;;21.90;56.80;;;;;;5028397;28;20187;-59
2022/05/05 10:42:45;;;;;;;34.63;14.73;;;21.90;56.80;;;;;;5012928;28;20050;-59
2022/05/05 10:45:25;;;;;;;24.63;11.32;;;21.90;56.80;;;;;;5013436;28;20574;-59
2022/05/05 10:48:06;;;;;;;30.60;11.80;;;21.90;56.50;;;;;;5012530;28;20099;-59
2022/05/05 10:50:56;;;;;;;51.05;21.17;;;21.90;56.40;;;;;;5013662;28;20042;-59
2022/05/05 10:53:37;;;;;;;70.18;25.35;;;21.90;56.50;;;;;;5028027;28;20073;-58
2022/05/05 10:56:04;;;;;;;110.45;38.60;;;21.90;56.70;;;;;;5012255;28;20049;-58
2022/05/05 10:58:59;;;;;;;116.45;39.63;;;22.00;57.80;;;;;;5013459;28;20052;-58
2022/05/05 11:01:29;;;;;;;86.30;31.23;;;22.00;59.00;;;;;;5012687;28;20046;-58
2022/05/05 11:04:17;;;;;;;66.03;25.05;;;22.00;59.20;;;;;;5013195;28;20038;-58
2022/05/05 11:06:43;;;;;;;65.18;24.13;;;22.00;59.00;;;;;;5011603;28;20045;-58
2022/05/05 11:09:09;;;;;;;61.63;23.02;;;22.10;58.90;;;;;;5011582;28;20395;-57
2022/05/05 11:11:41;;;;;;;63.80;23.67;;;22.10;58.70;;;;;;5011368;28;20053;-57
2022/05/05 11:23:20;;;;;;;44.85;17.55;;;22.10;57.80;;;;;;5012110;28;20073;-57
2022/05/05 11:25:45;;;;;;;42.40;14.88;;;22.10;57.30;;;;;;5028011;28;20046;-59
2022/05/05 11:28:11;;;;;;;28.80;11.73;;;22.10;56.70;;;;;;5028559;28;20042;-57
2022/05/05 11:30:36;;;;;;;30.08;12.00;;;22.10;55.80;;;;;;5012404;28;20111;-57
2022/05/05 11:33:03;;;;;;;28.50;11.02;;;22.10;55.50;;;;;;5012521;28;20046;-57
2022/05/05 11:35:28;;;;;;;26.55;11.45;;;22.10;55.30;;;;;;5012963;28;20156;-57
2022/05/05 11:37:54;;;;;;;26.63;10.63;;;22.10;55.10;;;;;;5011751;28;20085;-57
2022/05/05 11:40:20;;;;;;;26.02;11.35;;;22.10;55.00;;;;;;5012942;28;20041;-57
2022/05/05 11:45:30;;;;;;;26.52;9.82;;;22.10;54.90;;;;;;5012220;28;20050;-57
2022/05/05 11:47:55;;;;;;;24.48;9.80;;;22.10;54.80;;;;;;5012399;28;20046;-57
2022/05/05 11:50:21;;;;;;;23.25;9.90;;;22.20;54.90;;;;;;5012513;28;20162;-57
2022/05/05 11:52:47;;;;;;;25.65;9.38;;;22.20;54.80;;;;;;5011665;28;20561;-57
2022/05/05 11:55:13;;;;;;;22.17;8.77;;;22.10;54.70;;;;;;5012840;28;20042;-57
2022/05/05 11:57:39;;;;;;;22.77;9.10;;;22.20;54.80;;;;;;5010782;28;20037;-57
2022/05/05 12:02:51;;;;;;;19.85;8.88;;;22.20;54.70;;;;;;5012222;28;20096;-57
2022/05/05 12:05:17;;;;;;;18.73;8.70;;;22.20;54.80;;;;;;5011850;28;20092;-56
2022/05/05 12:07:46;;;;;;;20.88;8.88;;;22.20;54.80;;;;;;5011102;28;20037;-56
2022/05/05 12:10:14;;;;;;;21.27;8.80;;;22.20;54.80;;;;;;5011219;28;20482;-57
2022/05/05 12:12:46;;;;;;;;;;;22.20;54.80;;;;;;5011997;28;20037;-56
2022/05/05 12:15:12;;;;;;;19.50;8.18;;;22.20;54.80;;;;;;5012425;28;19921;-56
2022/05/05 12:17:41;;;;;;;18.83;8.35;;;22.20;54.80;;;;;;5013778;28;20556;-56
2022/05/05 12:20:08;;;;;;;20.58;8.60;;;22.20;54.70;;;;;;5015959;28;20045;-57
2022/05/05 12:22:44;;;;;;;19.25;7.28;;;22.20;54.70;;;;;;5016702;28;20095;-57
2022/05/05 12:25:14;;;;;;;19.38;7.30;;;22.20;54.60;;;;;;5016395;28;20124;-57
2022/05/05 12:27:40;;;;;;;17.90;7.53;;;22.20;54.60;;;;;;5015283;28;20408;-57
2022/05/05 12:30:06;;;;;;;20.67;7.93;;;22.20;54.60;;;;;;5016380;28;20046;-57
2022/05/05 12:32:32;;;;;;;15.90;7.25;;;22.20;54.60;;;;;;5016317;28;20052;-57
2022/05/05 12:35:17;;;;;;;16.70;7.35;;;22.30;54.60;;;;;;5015137;28;20206;-56
2022/05/05 12:37:43;;;;;;;16.73;6.95;;;22.30;54.60;;;;;;5016086;28;20042;-56
2022/05/05 12:40:09;;;;;;;18.05;7.68;;;22.30;54.60;;;;;;5015156;28;20133;-56
2022/05/05 12:42:43;;;;;;;16.65;6.88;;;22.30;54.60;;;;;;5016083;28;20121;-56
2022/05/05 12:45:15;;;;;;;18.08;7.18;;;22.30;54.60;;;;;;5016192;28;20046;-57
2022/05/05 12:47:42;;;;;;;17.30;7.25;;;22.30;54.60;;;;;;5014807;28;20038;-56
2022/05/05 12:50:33;;;;;;;16.15;7.15;;;22.30;54.50;;;;;;5016103;28;20084;-57
2022/05/05 13:01:22;;;;;;;14.27;6.20;;;22.40;54.50;;;;;;5015121;28;20042;-56
2022/05/05 13:03:48;;;;;;;14.68;6.68;;;22.40;54.40;;;;;;5015435;28;20053;-57
2022/05/05 13:06:14;;;;;;;14.63;6.57;;;22.40;54.40;;;;;;5015903;28;20050;-57
2022/05/05 13:08:40;;;;;;;11.35;5.65;;;22.40;54.40;;;;;;5014623;28;20049;-57
2022/05/05 13:11:05;;;;;;;17.17;6.82;;;22.40;54.40;;;;;;5015299;28;20104;-56
2022/05/05 13:13:31;;;;;;;13.57;6.00;;;22.40;54.40;;;;;;5015179;28;20053;-57
2022/05/05 13:15:56;;;;;;;12.48;5.40;;;22.40;54.40;;;;;;5014552;28;20077;-57
2022/05/05 13:18:22;;;;;;;13.40;5.88;;;22.40;54.40;;;;;;5015476;28;20092;-57
2022/05/05 13:20:47;;;;;;;13.25;5.82;;;22.40;54.30;;;;;;5014019;28;20474;-56
2022/05/05 13:23:13;;;;;;;11.05;5.43;;;22.50;54.40;;;;;;5014683;28;20061;-56
2022/05/05 13:25:38;;;;;;;11.80;5.55;;;22.50;54.30;;;;;;5014987;28;20120;-57
2022/05/05 13:28:04;;;;;;;10.80;5.57;;;22.40;54.30;;;;;;5015337;28;20396;-57
2022/05/05 13:30:30;;;;;;;12.80;5.68;;;22.50;54.30;;;;;;5013514;28;20092;-57
2022/05/05 13:32:55;;;;;;;11.05;5.20;;;22.50;54.30;;;;;;5014797;28;20048;-56
2022/05/05 13:35:21;;;;;;;9.55;5.00;;;22.50;54.30;;;;;;5015186;28;20041;-57
2022/05/05 13:37:47;;;;;;;11.75;5.28;;;22.40;54.30;;;;;;5014175;28;20089;-57
2022/05/05 13:40:13;;;;;;;12.13;5.50;;;22.40;54.40;;;;;;5013986;28;20129;-57
2022/05/05 13:42:38;;;;;;;11.45;5.75;;;22.40;54.50;;;;;;5014873;28;20129;-56
2022/05/05 13:45:04;;;;;;;10.73;5.07;;;22.40;54.60;;;;;;5014353;28;20041;-57